University Park Airport

Airport
ICAO code: 
KUNV
Summary
ICAO Region: 
NAM
Territory: 
Location: 
State College, Pennsylvania,
Coordinates: 
Aerial View: 
40° 51' 21.17" N, 77° 50' 37.826" W
Airport WX: 
Cumulonimbus
Metar
Observation
KUNV 021553Z 24012G21KT 10SM SCT060 12/06 A2968
Station
State College, University Park Airport
Date/Time
2021-12-02 15:53:00
Wind direction
240°
Wind speed
12 kts
Lowest cloud amount
scattered clouds
Temperature
12°C
Dew point
6°C
Humidity
66%
Weather condition
n/a

Description

University Park Airport is a public airport located in Centre County, Pennsylvania which serves the towns of State College and Bellefonte.

Climatology

Humid continental climate (Köppen climate classification Dfa) - characterized by four seasons: cold, windy, snowy winters, mild springs, hot, humid summers, and crisp and relatively short autumns. Precipitation reaches its lowest in January and February and peaks in summer and latter half of spring.

Runways

Designator Length Width Surface Rops
6/24 2042 46 ASP Yes/Yes
Airport map: 
Aerial View: 

SKYbrary Partners:

Safety knowledge contributed by: